createdAt,value
2019-06-20T00:00:56.994Z,23.55
2019-06-20T00:01:56.996Z,23.57
2019-06-20T00:02:57.001Z,23.53
2019-06-20T00:03:57.001Z,23.50
2019-06-20T00:04:57.008Z,23.43
2019-06-20T00:05:57.008Z,23.51
2019-06-20T00:06:57.011Z,23.48
2019-06-20T00:07:57.009Z,23.46
2019-06-20T00:08:57.020Z,23.46
2019-06-20T00:09:57.012Z,23.47
2019-06-20T00:10:57.062Z,23.50
2019-06-20T00:11:57.022Z,23.48
2019-06-20T00:13:00.285Z,23.40
2019-06-20T00:13:57.024Z,23.50
2019-06-20T00:14:57.032Z,23.48
2019-06-20T00:15:57.026Z,23.42
2019-06-20T00:16:59.387Z,23.38
2019-06-20T00:17:57.035Z,23.43
2019-06-20T00:18:57.082Z,23.43
2019-06-20T00:19:57.045Z,23.40
2019-06-20T00:20:57.041Z,23.42
2019-06-20T00:21:57.039Z,23.39
2019-06-20T00:22:57.042Z,23.42
2019-06-20T00:23:57.043Z,23.39
2019-06-20T00:24:57.046Z,23.32
2019-06-20T00:25:57.048Z,23.25
2019-06-20T00:26:57.057Z,23.33
2019-06-20T00:27:57.054Z,23.27
2019-06-20T00:28:57.056Z,23.27
2019-06-20T00:29:57.058Z,23.17
2019-06-20T00:30:57.060Z,23.09
2019-06-20T00:31:57.059Z,23.09
2019-06-20T00:32:57.062Z,23.16
2019-06-20T00:33:57.071Z,23.04
2019-06-20T00:34:57.067Z,23.07
2019-06-20T00:35:57.070Z,23.05
2019-06-20T00:36:57.079Z,22.97
2019-06-20T00:37:57.078Z,22.97
2019-06-20T00:38:57.080Z,22.95
2019-06-20T00:39:57.085Z,22.91
2019-06-20T00:40:57.081Z,22.91
2019-06-20T00:41:57.088Z,22.77
2019-06-20T00:42:57.090Z,22.88
2019-06-20T00:43:57.090Z,22.85
2019-06-20T00:44:57.093Z,22.90
2019-06-20T00:45:57.091Z,22.80
2019-06-20T00:46:57.099Z,22.80
2019-06-20T00:47:57.096Z,22.95
2019-06-20T00:48:57.102Z,22.85
2019-06-20T00:49:57.103Z,22.91
2019-06-20T00:50:57.109Z,22.88
2019-06-20T00:51:57.115Z,23.00
2019-06-20T00:52:57.110Z,23.04
2019-06-20T00:53:57.114Z,23.00
2019-06-20T00:54:57.112Z,22.97
2019-06-20T00:55:57.119Z,22.94
2019-06-20T00:56:57.117Z,22.98
2019-06-20T00:57:57.118Z,23.02
2019-06-20T00:58:57.120Z,23.09
2019-06-20T00:59:57.128Z,23.04
2019-06-20T01:00:57.130Z,23.04
2019-06-20T01:01:57.132Z,22.95
2019-06-20T01:02:57.140Z,22.88
2019-06-20T01:03:57.134Z,22.86
2019-06-20T01:04:57.136Z,22.92
2019-06-20T01:05:57.138Z,22.94
2019-06-20T01:06:57.141Z,22.76
2019-06-20T01:07:57.146Z,22.79
2019-06-20T01:08:57.143Z,22.82
2019-06-20T01:09:57.144Z,22.79
2019-06-20T01:10:57.147Z,22.80
2019-06-20T01:11:57.149Z,22.79
2019-06-20T01:12:57.156Z,22.79
2019-06-20T01:13:57.153Z,22.80
2019-06-20T01:14:57.160Z,22.77
2019-06-20T01:15:57.168Z,22.79
2019-06-20T01:16:57.162Z,22.73
2019-06-20T01:17:57.162Z,22.67
2019-06-20T01:18:57.167Z,22.60
2019-06-20T01:19:58.328Z,22.64
2019-06-20T01:20:57.173Z,22.60
2019-06-20T01:21:57.179Z,22.62
2019-06-20T01:22:57.175Z,22.55
2019-06-20T01:23:57.172Z,22.60
2019-06-20T01:24:57.176Z,22.65
2019-06-20T01:25:57.182Z,22.62
2019-06-20T01:26:57.184Z,22.73
2019-06-20T01:27:57.180Z,22.73
2019-06-20T01:28:57.187Z,22.73
2019-06-20T01:29:57.191Z,22.73
2019-06-20T01:30:57.190Z,22.76
2019-06-20T01:31:57.197Z,22.76
2019-06-20T01:32:57.198Z,22.80
2019-06-20T01:33:57.260Z,22.85
2019-06-20T01:34:57.201Z,22.80
2019-06-20T01:35:57.197Z,22.79
2019-06-20T01:36:57.204Z,22.80
2019-06-20T01:37:57.209Z,22.90
2019-06-20T01:38:57.210Z,22.85
2019-06-20T01:39:57.210Z,22.82
2019-06-20T01:40:57.209Z,22.92
2019-06-20T01:41:57.216Z,22.97
2019-06-20T01:42:57.225Z,22.95
2019-06-20T01:43:57.218Z,22.94
2019-06-20T01:44:57.220Z,23.05
2019-06-20T01:45:57.220Z,23.04
2019-06-20T01:46:57.232Z,23.05
2019-06-20T01:47:57.223Z,23.05
2019-06-20T01:48:57.228Z,22.98
2019-06-20T01:49:57.231Z,22.98
2019-06-20T01:50:57.235Z,23.16
2019-06-20T01:51:57.235Z,23.17
2019-06-20T01:52:57.238Z,23.16
2019-06-20T01:53:57.239Z,23.13
2019-06-20T01:54:57.242Z,23.12
2019-06-20T01:55:57.361Z,23.09
2019-06-20T01:56:57.246Z,23.12
2019-06-20T01:57:57.248Z,23.07
2019-06-20T01:58:57.247Z,23.10
2019-06-20T01:59:57.258Z,23.12
2019-06-20T02:00:57.253Z,22.94
2019-06-20T02:01:57.255Z,22.98
2019-06-20T02:02:57.263Z,22.97
2019-06-20T02:03:57.261Z,22.95
2019-06-20T02:04:57.267Z,22.95
2019-06-20T02:05:57.261Z,22.85
2019-06-20T02:06:57.267Z,22.88
2019-06-20T02:07:57.265Z,22.77
2019-06-20T02:08:57.273Z,22.82
2019-06-20T02:09:57.273Z,22.79
2019-06-20T02:10:57.271Z,22.82
2019-06-20T02:11:57.279Z,22.75
2019-06-20T02:12:57.302Z,22.77
2019-06-20T02:14:06.873Z,22.72
2019-06-20T02:14:57.281Z,22.67
2019-06-20T02:15:57.285Z,22.73
2019-06-20T02:16:57.289Z,22.70
2019-06-20T02:17:57.288Z,22.68
2019-06-20T02:18:57.289Z,22.73
2019-06-20T02:19:57.290Z,22.65
2019-06-20T02:20:57.293Z,22.61
2019-06-20T02:21:57.298Z,22.58
2019-06-20T02:22:57.295Z,22.57
2019-06-20T02:23:57.299Z,22.58
2019-06-20T02:24:57.302Z,22.49
2019-06-20T02:25:57.303Z,22.51
2019-06-20T02:26:57.304Z,22.47
2019-06-20T02:27:57.309Z,22.42
2019-06-20T02:28:57.305Z,22.37
2019-06-20T02:29:57.316Z,22.31
2019-06-20T02:30:57.311Z,22.25
2019-06-20T02:31:57.315Z,22.25
2019-06-20T02:32:57.321Z,22.35
2019-06-20T02:33:57.318Z,22.28
2019-06-20T02:34:57.320Z,22.36
2019-06-20T02:35:57.326Z,22.25
2019-06-20T02:36:57.332Z,22.18
2019-06-20T02:37:57.331Z,22.36
2019-06-20T02:38:57.329Z,22.24
2019-06-20T02:39:57.330Z,22.33
2019-06-20T02:40:57.337Z,22.33
2019-06-20T02:41:57.334Z,22.45
2019-06-20T02:42:57.334Z,22.24
2019-06-20T02:43:57.338Z,22.39
2019-06-20T02:44:57.339Z,22.22
2019-06-20T02:45:57.346Z,22.24
2019-06-20T02:46:57.342Z,22.20
2019-06-20T02:47:57.363Z,22.20
2019-06-20T02:48:57.350Z,22.28
2019-06-20T02:49:57.347Z,22.28
2019-06-20T02:50:57.354Z,22.20
2019-06-20T02:51:57.693Z,22.22
2019-06-20T02:52:57.688Z,22.18
2019-06-20T02:53:57.359Z,22.12
2019-06-20T02:54:57.366Z,22.07
2019-06-20T02:55:57.357Z,22.09
2019-06-20T02:56:57.368Z,22.09
2019-06-20T02:57:57.366Z,22.09
2019-06-20T02:58:57.362Z,22.09
2019-06-20T02:59:57.371Z,22.00
2019-06-20T03:00:57.380Z,21.94
2019-06-20T03:01:57.370Z,22.02
2019-06-20T03:02:57.374Z,21.90
2019-06-20T03:03:57.378Z,21.84
2019-06-20T03:04:57.380Z,21.84
2019-06-20T03:05:57.395Z,21.86
2019-06-20T03:06:57.390Z,21.69
2019-06-20T03:07:57.382Z,21.67
2019-06-20T03:08:57.383Z,21.62
2019-06-20T03:09:57.451Z,21.56
2019-06-20T03:10:57.393Z,21.52
2019-06-20T03:11:57.394Z,21.50
2019-06-20T03:12:57.391Z,21.50
2019-06-20T03:13:57.392Z,21.42
2019-06-20T03:14:57.399Z,21.38
2019-06-20T03:15:57.398Z,21.37
2019-06-20T03:16:57.399Z,21.37
2019-06-20T03:17:57.402Z,21.32
2019-06-20T03:18:57.402Z,21.37
2019-06-20T03:19:57.406Z,21.42
2019-06-20T03:20:57.408Z,21.38
2019-06-20T03:21:57.412Z,21.38
2019-06-20T03:22:57.410Z,21.42
2019-06-20T03:23:57.410Z,21.35
2019-06-20T03:24:57.412Z,21.43
2019-06-20T03:25:57.419Z,21.49
2019-06-20T03:26:57.423Z,21.43
2019-06-20T03:27:57.423Z,21.46
2019-06-20T03:28:57.421Z,21.43
2019-06-20T03:29:57.422Z,21.44
2019-06-20T03:30:57.426Z,21.50
2019-06-20T03:31:57.428Z,21.50
2019-06-20T03:32:57.437Z,21.46
2019-06-20T03:33:57.441Z,21.52
2019-06-20T03:34:57.430Z,21.53
2019-06-20T03:35:57.436Z,21.54
2019-06-20T03:36:57.436Z,21.52
2019-06-20T03:37:57.438Z,21.59
2019-06-20T03:38:57.439Z,21.58
2019-06-20T03:39:57.442Z,21.61
2019-06-20T03:40:57.466Z,21.61
2019-06-20T03:41:57.445Z,21.59
2019-06-20T03:42:57.442Z,21.61
2019-06-20T03:43:59.104Z,21.64
2019-06-20T03:45:02.042Z,21.65
2019-06-20T03:45:57.452Z,21.65
2019-06-20T03:46:57.454Z,21.67
2019-06-20T03:47:57.455Z,21.64
2019-06-20T03:48:57.453Z,21.67
2019-06-20T03:49:57.454Z,21.56
2019-06-20T03:50:57.463Z,21.53
2019-06-20T03:51:57.459Z,21.61
2019-06-20T03:52:57.460Z,21.58
2019-06-20T03:53:57.462Z,21.64
2019-06-20T03:54:57.464Z,21.59
2019-06-20T03:55:57.473Z,21.62
2019-06-20T03:56:57.468Z,21.58
2019-06-20T03:57:57.466Z,21.64
2019-06-20T03:58:57.469Z,21.59
2019-06-20T03:59:57.473Z,21.53
2019-06-20T04:00:57.474Z,21.52
2019-06-20T04:01:57.473Z,21.50
2019-06-20T04:02:57.477Z,21.47
2019-06-20T04:03:57.481Z,21.44
2019-06-20T04:04:57.482Z,21.49
2019-06-20T04:05:57.498Z,21.49
2019-06-20T04:06:57.491Z,21.50
2019-06-20T04:07:57.486Z,21.44
2019-06-20T04:08:57.547Z,21.42
2019-06-20T04:09:57.498Z,21.40
2019-06-20T04:10:57.497Z,21.47
2019-06-20T04:11:57.492Z,21.37
2019-06-20T04:12:57.494Z,21.27
2019-06-20T04:13:57.496Z,21.28
2019-06-20T04:14:57.498Z,21.27
2019-06-20T04:15:57.503Z,21.13
2019-06-20T04:16:57.500Z,21.14
2019-06-20T04:17:57.503Z,21.28
2019-06-20T04:18:57.512Z,21.14
2019-06-20T04:19:57.503Z,21.13
2019-06-20T04:20:57.507Z,21.19
2019-06-20T04:21:57.511Z,21.19
2019-06-20T04:22:57.511Z,21.27
2019-06-20T04:23:57.511Z,21.24
2019-06-20T04:24:57.517Z,21.28
2019-06-20T04:25:57.511Z,21.37
2019-06-20T04:26:57.521Z,21.38
2019-06-20T04:27:57.523Z,21.42
2019-06-20T04:28:57.519Z,21.35
2019-06-20T04:29:57.523Z,21.42
2019-06-20T04:30:57.522Z,21.46
2019-06-20T04:31:57.525Z,21.40
2019-06-20T04:32:57.523Z,21.46
2019-06-20T04:33:57.529Z,21.40
2019-06-20T04:34:57.533Z,21.44
2019-06-20T04:35:57.546Z,21.44
2019-06-20T04:36:57.533Z,21.43
2019-06-20T04:37:57.545Z,21.47
2019-06-20T04:38:57.545Z,21.52
2019-06-20T04:39:57.535Z,21.56
2019-06-20T04:40:57.535Z,21.61
2019-06-20T04:41:57.539Z,21.62
2019-06-20T04:42:57.537Z,21.67
2019-06-20T04:43:57.544Z,21.68
2019-06-20T04:44:57.562Z,21.69
2019-06-20T04:45:57.544Z,21.67
2019-06-20T04:46:57.547Z,21.67
2019-06-20T04:47:57.543Z,21.77
2019-06-20T04:48:57.547Z,21.86
2019-06-20T04:49:57.551Z,21.83
2019-06-20T04:50:57.560Z,21.83
2019-06-20T04:51:57.556Z,21.88
2019-06-20T04:52:57.556Z,21.84
2019-06-20T04:53:57.559Z,21.88
2019-06-20T04:54:57.562Z,21.94
2019-06-20T04:55:57.563Z,21.94
2019-06-20T04:56:57.560Z,21.99
2019-06-20T04:57:57.562Z,21.99
2019-06-20T04:58:57.570Z,22.09
2019-06-20T04:59:57.566Z,22.03
2019-06-20T05:00:57.565Z,22.07
2019-06-20T05:01:57.572Z,22.05
2019-06-20T05:02:57.575Z,22.21
2019-06-20T05:03:57.575Z,22.28
2019-06-20T05:04:57.574Z,22.24
2019-06-20T05:05:57.574Z,22.28
2019-06-20T05:06:57.577Z,22.28
2019-06-20T05:07:57.581Z,22.28
2019-06-20T05:08:57.576Z,22.39
2019-06-20T05:09:57.583Z,22.46
2019-06-20T05:10:57.593Z,22.43
2019-06-20T05:11:57.620Z,22.46
2019-06-20T05:12:57.586Z,22.49
2019-06-20T05:13:57.590Z,22.57
2019-06-20T05:14:57.590Z,22.68
2019-06-20T05:15:57.595Z,22.65
2019-06-20T05:16:57.594Z,22.62
2019-06-20T05:17:57.600Z,22.72
2019-06-20T05:18:57.599Z,22.64
2019-06-20T05:19:57.598Z,22.76
2019-06-20T05:20:57.598Z,22.85
2019-06-20T05:21:57.605Z,22.86
2019-06-20T05:22:57.607Z,22.79
2019-06-20T05:23:57.608Z,22.95
2019-06-20T05:24:57.609Z,22.95
2019-06-20T05:25:57.610Z,22.98
2019-06-20T05:26:57.613Z,23.05
2019-06-20T05:27:57.615Z,23.02
2019-06-20T05:28:57.616Z,23.10
2019-06-20T05:29:57.619Z,23.19
2019-06-20T05:30:57.619Z,23.27
2019-06-20T05:31:57.618Z,23.35
2019-06-20T05:32:57.632Z,23.38
2019-06-20T05:33:57.626Z,23.39
2019-06-20T05:34:57.627Z,23.38
2019-06-20T05:35:57.626Z,23.46
2019-06-20T05:36:57.632Z,23.40
2019-06-20T05:37:57.657Z,23.54
2019-06-20T05:38:57.638Z,23.58
2019-06-20T05:39:57.643Z,23.65
2019-06-20T05:40:57.657Z,23.61
2019-06-20T05:41:57.691Z,23.69
2019-06-20T05:42:57.644Z,23.83
2019-06-20T05:43:57.640Z,23.84
2019-06-20T05:44:57.651Z,23.87
2019-06-20T05:46:08.896Z,23.95
2019-06-20T05:47:11.989Z,23.94
2019-06-20T05:47:57.655Z,24.09
2019-06-20T05:48:57.654Z,24.12
2019-06-20T05:49:57.655Z,24.10
2019-06-20T05:50:57.654Z,24.18
2019-06-20T05:51:57.662Z,24.27
2019-06-20T05:52:57.662Z,24.28
2019-06-20T05:53:57.670Z,24.35
2019-06-20T05:54:57.757Z,24.34
2019-06-20T05:55:57.674Z,24.45
2019-06-20T05:56:57.671Z,24.50
2019-06-20T05:57:57.865Z,24.47
2019-06-20T05:58:57.682Z,24.61
2019-06-20T05:59:57.680Z,24.55
2019-06-20T06:00:57.680Z,24.55
2019-06-20T06:01:57.691Z,24.60
2019-06-20T06:02:58.248Z,24.58
2019-06-20T06:03:57.686Z,24.58
2019-06-20T06:04:57.693Z,24.60
2019-06-20T06:05:57.690Z,24.65
2019-06-20T06:06:57.744Z,24.65
2019-06-20T06:07:58.444Z,24.52
2019-06-20T06:08:57.698Z,24.62
2019-06-20T06:09:57.702Z,24.62
2019-06-20T06:10:57.701Z,24.61
2019-06-20T06:11:57.709Z,24.53
2019-06-20T06:12:57.707Z,24.68
2019-06-20T06:13:57.714Z,24.68
2019-06-20T06:15:00.878Z,24.71
2019-06-20T06:15:57.748Z,24.76
2019-06-20T06:16:57.726Z,24.81
2019-06-20T06:17:57.738Z,24.85
2019-06-20T06:18:57.725Z,24.77
2019-06-20T06:19:57.724Z,24.80
2019-06-20T06:20:57.727Z,24.85
2019-06-20T06:21:57.736Z,24.84
2019-06-20T06:22:57.731Z,24.96
2019-06-20T06:23:57.737Z,24.98
2019-06-20T06:24:57.739Z,25.05
2019-06-20T06:25:57.745Z,25.15
2019-06-20T06:26:59.942Z,25.14
2019-06-20T06:27:57.746Z,25.09
2019-06-20T06:28:57.753Z,25.17
2019-06-20T06:29:57.818Z,25.18
2019-06-20T06:30:57.755Z,25.14
2019-06-20T06:31:57.755Z,25.15
2019-06-20T06:32:57.760Z,24.91
2019-06-20T06:33:57.772Z,24.98
2019-06-20T06:34:57.765Z,24.88
2019-06-20T06:35:57.776Z,24.87
2019-06-20T06:36:57.780Z,24.76
2019-06-20T06:37:57.773Z,24.69
2019-06-20T06:38:57.779Z,24.62
2019-06-20T06:39:57.774Z,24.52
2019-06-20T06:40:57.780Z,24.50
2019-06-20T06:41:57.793Z,24.55
2019-06-20T06:42:57.791Z,24.47
2019-06-20T06:43:57.792Z,24.43
2019-06-20T06:44:57.791Z,24.30
2019-06-20T06:45:57.808Z,24.34
2019-06-20T06:46:59.471Z,24.31
2019-06-20T06:47:57.803Z,24.34
2019-06-20T06:48:57.807Z,24.25
2019-06-20T06:49:57.808Z,24.21
2019-06-20T06:50:57.809Z,24.12
2019-06-20T06:51:57.829Z,23.98
2019-06-20T06:52:57.816Z,23.80
2019-06-20T06:53:57.820Z,23.55
2019-06-20T06:54:57.830Z,23.50
2019-06-20T06:55:57.823Z,23.32
2019-06-20T06:56:57.826Z,23.09
2019-06-20T06:57:57.948Z,22.94
2019-06-20T06:58:57.831Z,22.86
2019-06-20T06:59:57.836Z,22.83
2019-06-20T07:00:57.837Z,22.65
2019-06-20T07:01:57.843Z,22.60
2019-06-20T07:02:57.847Z,22.52
2019-06-20T07:03:57.843Z,22.45
2019-06-20T07:04:57.842Z,22.45
2019-06-20T07:05:57.850Z,22.52
2019-06-20T07:06:57.853Z,22.45
2019-06-20T07:07:57.856Z,22.45
2019-06-20T07:08:57.855Z,22.51
2019-06-20T07:09:57.860Z,22.46
2019-06-20T07:10:57.871Z,22.46
2019-06-20T07:11:57.875Z,22.45
2019-06-20T07:12:57.861Z,22.47
2019-06-20T07:13:57.882Z,22.57
2019-06-20T07:14:57.867Z,22.55
2019-06-20T07:15:57.874Z,22.58
2019-06-20T07:17:00.620Z,22.67
2019-06-20T07:17:57.871Z,22.80
2019-06-20T07:18:57.876Z,22.82
2019-06-20T07:19:57.914Z,22.86
2019-06-20T07:20:57.883Z,22.97
2019-06-20T07:21:57.913Z,23.10
2019-06-20T07:22:57.892Z,23.23
2019-06-20T07:23:57.895Z,23.36
2019-06-20T07:24:57.889Z,23.47
2019-06-20T07:25:57.902Z,23.54
2019-06-20T07:26:57.895Z,23.76
2019-06-20T07:27:57.898Z,23.79
2019-06-20T07:28:57.906Z,23.97
2019-06-20T07:29:57.904Z,24.09
2019-06-20T07:30:57.903Z,24.10
2019-06-20T07:31:57.908Z,24.06
2019-06-20T07:32:57.918Z,24.20
2019-06-20T07:33:57.919Z,24.12
2019-06-20T07:34:57.914Z,24.03
2019-06-20T07:35:57.927Z,24.10
2019-06-20T07:36:57.931Z,24.09
2019-06-20T07:37:57.935Z,24.15
2019-06-20T07:38:57.924Z,24.25
2019-06-20T07:39:57.940Z,24.25
2019-06-20T07:40:57.928Z,24.30
2019-06-20T07:41:57.933Z,24.37
2019-06-20T07:42:57.947Z,24.43
2019-06-20T07:43:57.942Z,24.55
2019-06-20T07:44:57.994Z,24.49
2019-06-20T07:46:02.576Z,24.58
2019-06-20T07:46:57.945Z,24.64
2019-06-20T07:47:57.955Z,24.69
2019-06-20T07:48:57.971Z,24.77
2019-06-20T07:49:57.955Z,24.95
2019-06-20T07:50:57.964Z,24.96
2019-06-20T07:51:57.960Z,25.13
2019-06-20T07:53:02.425Z,25.21
2019-06-20T07:53:57.974Z,25.33
2019-06-20T07:54:57.968Z,25.40
2019-06-20T07:55:57.973Z,25.43
2019-06-20T07:56:57.986Z,25.43
2019-06-20T07:57:57.982Z,25.50
2019-06-20T07:58:57.989Z,25.43
2019-06-20T07:59:57.990Z,25.40
2019-06-20T08:00:57.999Z,25.46
2019-06-20T08:01:58.001Z,25.15
2019-06-20T08:02:58.000Z,25.05
2019-06-20T08:04:01.308Z,24.91
2019-06-20T08:04:58.011Z,24.88
2019-06-20T08:05:58.007Z,24.87
2019-06-20T08:06:58.009Z,24.68
2019-06-20T08:07:58.033Z,24.61
2019-06-20T08:08:58.023Z,24.57
2019-06-20T08:09:58.025Z,24.47
2019-06-20T08:10:58.026Z,24.50
2019-06-20T08:11:58.030Z,24.52
2019-06-20T08:12:58.030Z,24.46
2019-06-20T08:13:58.030Z,24.47
2019-06-20T08:15:13.760Z,24.52
2019-06-20T08:15:58.036Z,24.46
2019-06-20T08:16:58.065Z,24.49
2019-06-20T08:17:58.047Z,24.47
2019-06-20T08:18:58.053Z,24.53
2019-06-20T08:19:58.058Z,24.57
2019-06-20T08:20:58.060Z,24.65
2019-06-20T08:21:58.059Z,24.53
2019-06-20T08:22:58.057Z,24.64
2019-06-20T08:23:58.064Z,24.80
2019-06-20T08:24:59.031Z,24.88
2019-06-20T08:25:59.267Z,25.02
2019-06-20T08:26:58.718Z,25.20
2019-06-20T08:27:59.474Z,25.35
2019-06-20T08:29:10.503Z,25.55
2019-06-20T08:29:59.056Z,25.82
2019-06-20T08:30:58.969Z,26.09
2019-06-20T08:31:59.752Z,26.51
2019-06-20T08:32:59.786Z,26.65
2019-06-20T08:33:59.262Z,26.81
2019-06-20T08:34:59.429Z,26.94
2019-06-20T08:35:58.877Z,26.91
2019-06-20T08:36:59.268Z,26.80
2019-06-20T08:37:59.344Z,26.72
2019-06-20T08:38:58.765Z,26.66
2019-06-20T08:39:58.427Z,26.60
2019-06-20T08:40:58.549Z,26.55
2019-06-20T08:41:59.217Z,26.54
2019-06-20T08:42:58.852Z,27.03
2019-06-20T08:43:58.695Z,27.85
2019-06-20T08:44:59.446Z,28.85
2019-06-20T08:45:59.493Z,29.61
2019-06-20T08:46:59.271Z,29.68
2019-06-20T08:47:58.400Z,29.45
2019-06-20T08:48:59.454Z,29.33
2019-06-20T08:49:59.728Z,29.21
2019-06-20T08:50:58.513Z,29.60
2019-06-20T08:51:59.209Z,30.23
2019-06-20T08:52:59.704Z,30.92
2019-06-20T08:53:59.260Z,31.25
2019-06-20T08:54:59.508Z,31.31
2019-06-20T08:55:59.408Z,31.17
2019-06-20T08:56:59.029Z,30.83
2019-06-20T08:57:59.520Z,30.53
2019-06-20T08:58:58.557Z,30.26
2019-06-20T08:59:58.844Z,30.05
2019-06-20T09:01:01.277Z,29.74
2019-06-20T09:02:00.050Z,29.58
2019-06-20T09:02:58.692Z,29.43
2019-06-20T09:03:58.573Z,29.04
2019-06-20T09:04:58.275Z,28.96
2019-06-20T09:05:58.420Z,28.64
2019-06-20T09:06:59.174Z,28.30
2019-06-20T09:07:59.045Z,28.24
2019-06-20T09:08:58.334Z,28.24
2019-06-20T09:09:59.755Z,28.06
2019-06-20T09:10:59.480Z,28.22
2019-06-20T09:11:58.636Z,28.14
2019-06-20T09:12:59.131Z,28.33
2019-06-20T09:13:59.230Z,28.48
2019-06-20T09:14:59.130Z,28.43
2019-06-20T09:15:58.782Z,28.40
2019-06-20T09:16:59.309Z,28.33
2019-06-20T09:17:58.528Z,28.25
2019-06-20T09:18:58.480Z,28.25
2019-06-20T09:19:58.389Z,28.04
2019-06-20T09:20:58.401Z,28.11
2019-06-20T09:21:58.407Z,28.07
2019-06-20T09:22:58.945Z,27.96
2019-06-20T09:23:59.858Z,27.82
2019-06-20T09:24:58.527Z,27.84
2019-06-20T09:25:59.585Z,27.72
2019-06-20T09:26:59.359Z,27.77
2019-06-20T09:27:58.441Z,27.77
2019-06-20T09:28:59.355Z,27.75
2019-06-20T09:29:58.559Z,27.75
2019-06-20T09:30:59.229Z,27.60
2019-06-20T09:31:58.626Z,27.44
2019-06-20T09:32:59.883Z,27.40
2019-06-20T09:34:02.428Z,27.28
2019-06-20T09:34:58.732Z,27.19
2019-06-20T09:35:59.554Z,27.10
2019-06-20T09:36:59.355Z,27.07
2019-06-20T09:37:59.366Z,26.99
2019-06-20T09:38:59.568Z,26.91
2019-06-20T09:39:59.209Z,26.88
2019-06-20T09:40:59.218Z,26.73
2019-06-20T09:41:58.918Z,26.57
2019-06-20T09:42:58.824Z,26.35
2019-06-20T09:43:58.631Z,26.23
2019-06-20T09:44:58.556Z,26.23
2019-06-20T09:45:58.561Z,26.21
2019-06-20T09:46:58.569Z,26.18
2019-06-20T09:47:58.576Z,26.20
2019-06-20T09:48:58.802Z,26.29
2019-06-20T09:49:59.039Z,26.30
2019-06-20T09:50:58.699Z,26.40
2019-06-20T09:51:58.740Z,26.36
2019-06-20T09:52:58.597Z,26.45
2019-06-20T09:53:58.606Z,26.48
2019-06-20T09:54:58.611Z,26.50
2019-06-20T09:55:58.616Z,26.51
2019-06-20T09:56:58.621Z,26.48
2019-06-20T09:57:58.626Z,26.36
2019-06-20T09:58:58.634Z,26.44
2019-06-20T10:00:07.696Z,26.62
2019-06-20T10:00:58.642Z,26.62
2019-06-20T10:01:58.910Z,26.82
2019-06-20T10:02:58.656Z,26.94
2019-06-20T10:03:58.669Z,27.09
2019-06-20T10:04:58.661Z,27.18
2019-06-20T10:05:58.725Z,27.25
2019-06-20T10:06:58.678Z,27.37
2019-06-20T10:07:58.681Z,27.49
2019-06-20T10:08:58.685Z,27.49
2019-06-20T10:09:58.702Z,27.39
2019-06-20T10:10:58.700Z,27.29
2019-06-20T10:11:58.701Z,27.31
2019-06-20T10:12:58.716Z,27.13
2019-06-20T10:13:58.718Z,27.06
2019-06-20T10:14:58.724Z,27.04
2019-06-20T10:15:58.727Z,26.97
2019-06-20T10:16:58.730Z,26.87
2019-06-20T10:17:58.826Z,26.99
2019-06-20T10:18:58.741Z,27.12
2019-06-20T10:19:58.748Z,27.41
2019-06-20T10:20:58.794Z,27.50
2019-06-20T10:21:58.776Z,27.82
2019-06-20T10:22:58.764Z,28.11
2019-06-20T10:23:58.767Z,28.33
2019-06-20T10:24:58.775Z,28.58
2019-06-20T10:25:58.782Z,29.08
2019-06-20T10:26:58.786Z,29.36
2019-06-20T10:27:58.792Z,29.52
2019-06-20T10:28:58.802Z,30.10
2019-06-20T10:30:10.674Z,30.55
2019-06-20T10:30:58.821Z,30.64
2019-06-20T10:31:58.824Z,30.89
2019-06-20T10:32:58.836Z,30.73
2019-06-20T10:33:58.843Z,30.60
2019-06-20T10:34:58.862Z,30.43
2019-06-20T10:35:58.860Z,30.38
2019-06-20T10:36:58.865Z,30.76
2019-06-20T10:37:58.960Z,31.25
2019-06-20T10:38:58.887Z,31.66
2019-06-20T10:39:58.987Z,32.00
2019-06-20T10:41:00.131Z,32.51
2019-06-20T10:41:58.930Z,33.16
2019-06-20T10:42:58.922Z,33.71
2019-06-20T10:43:58.933Z,34.12
2019-06-20T10:44:58.948Z,34.53
2019-06-20T10:45:58.966Z,34.92
2019-06-20T10:46:58.973Z,35.31
2019-06-20T10:47:58.986Z,35.50
2019-06-20T10:48:58.997Z,35.81
2019-06-20T10:49:59.017Z,36.31
2019-06-20T10:50:59.028Z,36.71
2019-06-20T10:51:59.034Z,36.99
2019-06-20T10:52:59.050Z,37.05
2019-06-20T10:53:59.068Z,36.72
2019-06-20T10:54:59.079Z,36.29
2019-06-20T10:55:59.103Z,36.20
2019-06-20T10:56:59.106Z,36.41
2019-06-20T10:57:59.121Z,36.53
2019-06-20T10:58:59.141Z,36.87
2019-06-20T10:59:59.155Z,37.15
2019-06-20T11:00:59.168Z,37.34
2019-06-20T11:01:59.188Z,38.00
2019-06-20T11:02:59.207Z,38.52
2019-06-20T11:03:59.225Z,38.76
2019-06-20T11:04:59.238Z,38.65
2019-06-20T11:05:59.256Z,38.59
2019-06-20T11:06:59.274Z,38.59
2019-06-20T11:07:59.283Z,38.04
2019-06-20T11:08:59.302Z,38.20
2019-06-20T11:09:59.324Z,38.59
2019-06-20T11:10:59.338Z,38.68
2019-06-20T11:11:59.368Z,38.93
2019-06-20T11:12:59.375Z,38.95
2019-06-20T11:13:59.412Z,38.93
2019-06-20T11:14:59.419Z,39.01
2019-06-20T11:15:59.430Z,39.26
2019-06-20T11:16:59.449Z,39.36
2019-06-20T11:17:59.473Z,39.59
2019-06-20T11:18:59.494Z,39.77
2019-06-20T11:19:59.514Z,39.73
2019-06-20T11:20:59.531Z,39.54
2019-06-20T11:21:59.570Z,39.26
2019-06-20T11:22:59.576Z,39.18
2019-06-20T11:23:59.596Z,39.40
2019-06-20T11:24:59.619Z,39.44
2019-06-20T11:25:59.636Z,39.51
2019-06-20T11:26:59.661Z,39.91
2019-06-20T11:27:59.676Z,40.20
2019-06-20T11:28:59.697Z,40.39
2019-06-20T11:29:59.727Z,40.41
2019-06-20T11:31:00.744Z,40.46
2019-06-20T11:31:59.790Z,40.06
2019-06-20T11:32:59.790Z,40.04
2019-06-20T11:33:59.807Z,39.82
2019-06-20T11:34:59.843Z,39.62
2019-06-20T11:35:59.855Z,39.22
2019-06-20T11:36:59.883Z,39.04
2019-06-20T11:37:59.893Z,39.11
2019-06-20T11:38:59.946Z,39.33
2019-06-20T11:39:59.942Z,39.16
2019-06-20T11:40:59.964Z,38.57
2019-06-20T11:42:00.001Z,38.44
2019-06-20T11:43:00.009Z,38.72
2019-06-20T11:44:00.026Z,39.13
2019-06-20T11:45:00.049Z,39.22
2019-06-20T11:46:00.078Z,39.44
2019-06-20T11:47:00.095Z,39.67
2019-06-20T11:48:00.123Z,39.82
2019-06-20T11:49:00.137Z,39.85
2019-06-20T11:50:00.167Z,39.88
2019-06-20T11:51:00.194Z,40.29
2019-06-20T11:52:00.219Z,39.89
2019-06-20T11:53:00.229Z,39.96
2019-06-20T11:54:00.254Z,40.04
2019-06-20T11:55:00.283Z,39.40
2019-06-20T11:56:00.374Z,38.90
2019-06-20T11:57:00.322Z,39.21
2019-06-20T11:58:00.349Z,39.40
2019-06-20T11:59:00.376Z,39.59
2019-06-20T12:00:00.398Z,39.88
2019-06-20T12:01:03.968Z,39.77
2019-06-20T12:02:00.453Z,39.85
2019-06-20T12:03:00.463Z,39.82
2019-06-20T12:04:00.488Z,39.97
2019-06-20T12:05:00.503Z,40.20
2019-06-20T12:06:00.529Z,40.32
2019-06-20T12:07:00.577Z,40.83
2019-06-20T12:08:00.579Z,40.99
2019-06-20T12:09:00.606Z,40.94
2019-06-20T12:10:00.636Z,40.51
2019-06-20T12:11:00.650Z,40.03
2019-06-20T12:12:00.665Z,39.43
2019-06-20T12:13:00.689Z,39.03
2019-06-20T12:14:00.740Z,38.49
2019-06-20T12:15:00.745Z,38.34
2019-06-20T12:16:00.761Z,38.07
2019-06-20T12:17:00.783Z,37.49
2019-06-20T12:18:00.807Z,37.06
2019-06-20T12:19:00.833Z,36.60
2019-06-20T12:20:00.851Z,36.20
2019-06-20T12:21:00.872Z,35.82
2019-06-20T12:22:00.886Z,35.71
2019-06-20T12:23:00.923Z,35.59
2019-06-20T12:24:00.927Z,35.72
2019-06-20T12:25:00.948Z,35.75
2019-06-20T12:26:00.968Z,35.94
2019-06-20T12:27:00.987Z,35.85
2019-06-20T12:28:01.008Z,36.00
2019-06-20T12:29:01.022Z,35.93
2019-06-20T12:30:01.043Z,35.93
2019-06-20T12:31:01.068Z,35.84
2019-06-20T12:32:01.081Z,35.94
2019-06-20T12:33:01.101Z,36.28
2019-06-20T12:34:01.125Z,36.93
2019-06-20T12:35:01.141Z,37.44
2019-06-20T12:36:01.157Z,37.66
2019-06-20T12:37:01.180Z,37.79
2019-06-20T12:38:01.192Z,37.75
2019-06-20T12:39:01.207Z,37.62
2019-06-20T12:40:01.225Z,37.70
2019-06-20T12:41:01.239Z,37.66
2019-06-20T12:42:01.269Z,37.69
2019-06-20T12:43:01.271Z,37.60
2019-06-20T12:44:01.312Z,37.62
2019-06-20T12:45:01.323Z,37.34
2019-06-20T12:46:01.324Z,37.02
2019-06-20T12:47:01.344Z,36.95
2019-06-20T12:48:01.357Z,36.73
2019-06-20T12:49:01.386Z,36.65
2019-06-20T12:50:01.394Z,36.38
2019-06-20T12:51:01.403Z,36.09
2019-06-20T12:52:01.428Z,36.08
2019-06-20T12:53:01.442Z,35.63